Time;durP1;ratioP1;P1;durP2;ratioP2;P2;SDS_P1;SDS_P2;PMS_P1;PMS_P2;Temp;Humidity;BMP_temperature;BMP_pressure;BME280_temperature;BME280_humidity;BME280_pressure;Samples;Min_cycle;Max_cycle;Signal;HPM_P1;HPM_P2
2021/09/11 00:01:58;;;;;;;3.40;3.10;;;18.70;99.90;;;;;;5032986;28;20176;-71
2021/09/11 00:04:23;;;;;;;3.90;3.60;;;18.70;99.90;;;;;;5033067;28;20243;-71
2021/09/11 00:06:49;;;;;;;4.43;3.00;;;18.60;99.90;;;;;;5032793;28;20187;-71
2021/09/11 00:09:14;;;;;;;5.30;3.30;;;18.60;99.90;;;;;;5031540;28;20185;-71
2021/09/11 00:11:40;;;;;;;3.87;3.47;;;18.60;99.90;;;;;;5032350;28;20235;-71
2021/09/11 00:14:06;;;;;;;4.57;3.30;;;18.50;99.90;;;;;;5032758;28;20187;-71
2021/09/11 00:16:31;;;;;;;3.40;2.97;;;18.50;99.90;;;;;;5028704;28;20212;-71
2021/09/11 00:18:57;;;;;;;4.33;3.20;;;18.50;99.90;;;;;;5013158;28;20153;-71
2021/09/11 00:21:22;;;;;;;4.77;3.23;;;18.50;99.90;;;;;;5013377;28;20200;-71
2021/09/11 00:23:48;;;;;;;9.00;6.33;;;18.50;99.90;;;;;;5029229;28;20227;-71
2021/09/11 00:26:14;;;;;;;8.07;5.10;;;18.50;99.90;;;;;;5032434;28;20191;-71
2021/09/11 00:28:39;;;;;;;8.50;4.80;;;18.50;99.90;;;;;;5024076;28;20678;-71
2021/09/11 00:31:07;;;;;;;4.40;3.80;;;18.50;99.90;;;;;;5025495;28;20181;-71
2021/09/11 00:33:32;;;;;;;4.63;4.03;;;18.50;99.90;;;;;;5032585;28;20172;-71
2021/09/11 00:35:57;;;;;;;4.77;4.13;;;18.50;99.90;;;;;;5032772;28;20481;-71
2021/09/11 00:38:23;;;;;;;4.67;3.97;;;18.50;99.90;;;;;;5032502;28;20163;-71
2021/09/11 00:40:49;;;;;;;4.33;3.47;;;18.50;99.90;;;;;;5031712;28;20268;-71
2021/09/11 00:43:23;;;;;;;6.40;4.57;;;18.40;99.90;;;;;;5032435;28;20680;-71
2021/09/11 00:45:49;;;;;;;4.50;3.67;;;18.40;99.90;;;;;;5032596;28;20161;-71
2021/09/11 00:48:14;;;;;;;3.70;3.33;;;18.40;99.90;;;;;;5032640;28;20445;-71
2021/09/11 00:50:40;;;;;;;3.90;3.50;;;18.40;99.90;;;;;;5032017;28;20664;-71
2021/09/11 00:53:05;;;;;;;6.03;4.53;;;18.40;99.90;;;;;;5032232;28;20257;-71
2021/09/11 00:55:31;;;;;;;3.17;2.73;;;18.40;99.90;;;;;;5032441;28;20153;-71
2021/09/11 00:57:57;;;;;;;4.27;3.87;;;18.40;99.90;;;;;;5032359;28;20278;-71
2021/09/11 01:00:22;;;;;;;5.97;3.60;;;18.40;99.90;;;;;;5017312;28;20821;-71
2021/09/11 01:02:48;;;;;;;6.73;3.90;;;18.40;99.90;;;;;;5032544;28;20164;-71
2021/09/11 01:05:13;;;;;;;4.73;3.67;;;18.40;99.90;;;;;;5032348;28;20157;-71
2021/09/11 01:07:41;;;;;;;9.67;5.87;;;18.40;99.90;;;;;;5031594;28;20188;-72
2021/09/11 01:10:08;;;;;;;6.07;4.90;;;18.40;99.90;;;;;;5032350;28;20251;-72
2021/09/11 01:12:34;;;;;;;7.90;4.00;;;18.40;99.90;;;;;;5032033;28;20507;-72
2021/09/11 01:15:05;;;;;;;5.57;4.10;;;18.40;99.90;;;;;;5032179;28;20423;-71
2021/09/11 01:17:30;;;;;;;4.23;3.83;;;18.40;99.90;;;;;;5031372;28;20451;-71
2021/09/11 01:19:56;;;;;;;4.90;4.30;;;18.40;99.90;;;;;;5031761;28;20429;-71
2021/09/11 01:22:21;;;;;;;4.57;4.17;;;18.50;99.90;;;;;;5031239;28;20183;-71
2021/09/11 01:27:29;;;;;;;5.93;4.83;;;18.50;99.90;;;;;;5065829;28;21052;-71
2021/09/11 01:29:56;;;;;;;4.40;4.00;;;18.50;99.90;;;;;;5066372;28;20400;-71
2021/09/11 01:32:23;;;;;;;3.87;3.47;;;18.50;99.90;;;;;;5033380;28;20799;-71
2021/09/11 01:34:50;;;;;;;4.40;3.70;;;18.50;99.90;;;;;;5048583;28;20499;-71
2021/09/11 01:37:16;;;;;;;7.47;4.53;;;18.50;99.90;;;;;;5049731;28;20912;-71
2021/09/11 01:39:46;;;;;;;4.67;4.27;;;18.50;99.90;;;;;;5048564;28;20383;-71
2021/09/11 01:42:12;;;;;;;4.53;4.10;;;18.60;99.90;;;;;;5049884;28;20466;-71
2021/09/11 01:44:44;;;;;;;5.63;5.13;;;18.50;99.90;;;;;;5049313;28;20471;-71
2021/09/11 01:47:09;;;;;;;5.30;4.80;;;18.50;99.90;;;;;;5030607;28;20210;-71
2021/09/11 01:49:35;;;;;;;4.67;4.27;;;18.50;99.90;;;;;;5033898;28;20581;-71
2021/09/11 01:52:00;;;;;;;5.87;4.43;;;18.50;99.90;;;;;;5049287;28;20180;-71
2021/09/11 01:54:26;;;;;;;7.80;6.20;;;18.50;99.90;;;;;;5049782;28;20179;-71
2021/09/11 01:56:51;;;;;;;7.13;6.30;;;18.50;99.90;;;;;;5045845;28;20195;-72
2021/09/11 01:59:17;;;;;;;7.90;6.10;;;18.50;99.90;;;;;;5029728;28;20200;-72
2021/09/11 02:01:42;;;;;;;9.07;6.70;;;18.50;99.90;;;;;;5029843;28;20641;-72
2021/09/11 02:04:08;;;;;;;8.73;7.80;;;18.50;99.90;;;;;;5032030;28;20188;-72
2021/09/11 02:06:33;;;;;;;9.77;8.43;;;18.50;99.90;;;;;;5043937;28;20253;-72
2021/09/11 02:08:59;;;;;;;10.17;8.00;;;18.50;99.90;;;;;;5049520;28;20156;-72
2021/09/11 02:11:24;;;;;;;10.70;8.60;;;18.50;99.90;;;;;;5040847;28;20161;-72
2021/09/11 02:13:50;;;;;;;9.97;8.27;;;18.60;99.90;;;;;;5043902;28;20215;-72
2021/09/11 02:16:15;;;;;;;8.93;7.20;;;18.60;99.90;;;;;;5039437;28;20177;-72
2021/09/11 02:18:41;;;;;;;13.73;9.33;;;18.60;99.90;;;;;;5029504;28;20161;-72
2021/09/11 02:21:06;;;;;;;9.90;8.43;;;18.60;99.90;;;;;;5029896;28;20196;-72
2021/09/11 02:23:32;;;;;;;12.67;10.00;;;18.60;99.90;;;;;;5041948;28;20286;-72
2021/09/11 02:25:58;;;;;;;10.47;9.27;;;18.60;99.90;;;;;;5041259;28;20207;-72
2021/09/11 02:28:23;;;;;;;14.10;10.13;;;18.60;99.90;;;;;;5029002;28;20180;-72
2021/09/11 02:30:49;;;;;;;12.47;10.33;;;18.60;99.90;;;;;;5031419;28;20579;-72
2021/09/11 02:33:14;;;;;;;12.83;11.03;;;18.60;99.90;;;;;;5049068;28;20195;-72
2021/09/11 02:35:40;;;;;;;12.00;10.63;;;18.60;99.90;;;;;;5049042;28;20195;-72
2021/09/11 02:38:05;;;;;;;13.40;10.37;;;18.60;99.90;;;;;;5037706;28;20644;-72
2021/09/11 02:40:31;;;;;;;14.77;11.37;;;18.60;99.90;;;;;;5016351;28;20224;-72
2021/09/11 02:42:56;;;;;;;16.13;12.23;;;18.60;99.90;;;;;;5016408;28;20278;-71
2021/09/11 02:45:22;;;;;;;14.50;11.73;;;18.60;99.90;;;;;;5015902;28;20669;-71
2021/09/11 02:47:47;;;;;;;16.90;12.50;;;18.60;99.90;;;;;;5016256;28;20178;-71
2021/09/11 02:50:13;;;;;;;16.83;12.60;;;18.60;99.90;;;;;;5016254;28;20162;-71
2021/09/11 02:52:38;;;;;;;19.17;13.13;;;18.60;99.90;;;;;;5015964;28;20510;-71
2021/09/11 02:55:05;;;;;;;16.57;12.97;;;18.60;99.90;;;;;;5016021;28;20165;-71
2021/09/11 02:57:30;;;;;;;17.73;12.13;;;18.60;99.90;;;;;;5016130;28;20185;-71
2021/09/11 02:59:56;;;;;;;15.80;12.60;;;18.60;99.90;;;;;;5015239;28;20862;-71
2021/09/11 03:02:21;;;;;;;20.50;13.63;;;18.60;99.90;;;;;;5015578;28;20161;-71
2021/09/11 03:04:47;;;;;;;17.30;12.67;;;18.50;99.90;;;;;;5015851;28;20182;-71
2021/09/11 03:07:12;;;;;;;18.07;13.93;;;18.50;99.90;;;;;;5015337;28;20235;-71
2021/09/11 03:09:38;;;;;;;18.33;13.50;;;18.50;99.90;;;;;;5015592;28;20611;-71
2021/09/11 03:12:03;;;;;;;19.30;13.90;;;18.50;99.90;;;;;;5017394;28;20188;-71
2021/09/11 03:14:29;;;;;;;18.03;13.37;;;18.50;99.90;;;;;;5034201;28;20595;-71
2021/09/11 03:16:55;;;;;;;20.20;14.07;;;18.50;99.90;;;;;;5019915;28;20653;-71
2021/09/11 03:19:20;;;;;;;23.13;15.30;;;18.50;99.90;;;;;;5015254;28;20256;-71
2021/09/11 03:21:46;;;;;;;21.23;14.47;;;18.50;99.90;;;;;;5015388;28;20213;-71
2021/09/11 03:24:11;;;;;;;17.37;14.07;;;18.50;99.90;;;;;;5015258;28;20646;-71
2021/09/11 03:26:37;;;;;;;23.27;14.63;;;18.50;99.90;;;;;;5014985;28;20217;-71
2021/09/11 03:29:03;;;;;;;19.00;14.43;;;18.50;99.90;;;;;;5016374;28;20158;-71
2021/09/11 03:31:29;;;;;;;16.80;13.80;;;18.50;99.90;;;;;;5034001;28;20640;-71
2021/09/11 03:33:54;;;;;;;18.83;14.00;;;18.50;99.90;;;;;;5034657;28;20395;-71
2021/09/11 03:36:20;;;;;;;19.80;15.77;;;18.50;99.90;;;;;;5034581;28;20219;-71
2021/09/11 03:38:45;;;;;;;20.90;13.40;;;18.50;99.90;;;;;;5031852;28;20303;-71
2021/09/11 03:41:11;;;;;;;22.07;13.80;;;18.50;99.90;;;;;;5014723;28;20166;-71
2021/09/11 03:43:37;;;;;;;19.63;14.27;;;18.50;99.90;;;;;;5032831;28;20551;-71
2021/09/11 03:46:02;;;;;;;20.57;14.30;;;18.50;99.90;;;;;;5030822;28;20243;-71
2021/09/11 03:48:28;;;;;;;20.20;14.57;;;18.50;99.90;;;;;;5014757;28;20203;-71
2021/09/11 03:50:53;;;;;;;21.40;15.13;;;18.50;99.90;;;;;;5014013;28;20157;-71
2021/09/11 03:53:19;;;;;;;22.37;14.07;;;18.50;99.90;;;;;;5014436;28;20657;-71
2021/09/11 03:55:45;;;;;;;19.27;14.43;;;18.40;99.90;;;;;;5014520;28;20181;-71
2021/09/11 03:58:11;;;;;;;21.57;14.90;;;18.40;99.90;;;;;;5014453;28;20422;-71
2021/09/11 04:00:36;;;;;;;25.83;15.93;;;18.40;99.90;;;;;;5014528;28;20176;-71
2021/09/11 04:03:02;;;;;;;22.10;16.30;;;18.40;99.90;;;;;;5015819;28;20655;-71
2021/09/11 04:05:27;;;;;;;21.03;14.63;;;18.40;99.90;;;;;;5033185;28;20549;-71
2021/09/11 04:07:53;;;;;;;21.67;15.83;;;18.40;99.90;;;;;;5034040;28;20164;-71
2021/09/11 04:10:19;;;;;;;24.63;17.53;;;18.40;99.90;;;;;;5029621;28;20185;-71
2021/09/11 04:12:44;;;;;;;21.47;15.60;;;18.40;99.90;;;;;;5014367;28;20191;-71
2021/09/11 04:15:10;;;;;;;22.50;15.20;;;18.40;99.90;;;;;;5014915;28;20196;-71
2021/09/11 04:17:35;;;;;;;23.53;16.67;;;18.40;99.90;;;;;;5033901;28;20169;-71
2021/09/11 04:20:01;;;;;;;22.30;16.93;;;18.40;99.90;;;;;;5030510;28;20184;-71
2021/09/11 04:22:27;;;;;;;27.67;17.17;;;18.40;99.90;;;;;;5019595;28;20644;-71
2021/09/11 04:24:52;;;;;;;19.77;15.50;;;18.40;99.90;;;;;;5014094;28;20188;-71
2021/09/11 04:27:18;;;;;;;20.37;15.30;;;18.40;99.90;;;;;;5014974;28;20637;-71
2021/09/11 04:29:43;;;;;;;23.03;15.70;;;18.40;99.90;;;;;;5014527;28;20590;-71
2021/09/11 04:32:09;;;;;;;19.20;14.47;;;18.40;99.90;;;;;;5026849;28;20173;-71
2021/09/11 04:34:34;;;;;;;17.23;12.60;;;18.30;99.90;;;;;;5033505;28;20200;-71
2021/09/11 04:37:00;;;;;;;18.77;12.30;;;18.30;99.90;;;;;;5032069;28;20183;-71
2021/09/11 04:39:25;;;;;;;14.53;11.23;;;18.30;99.90;;;;;;5014353;28;20190;-71
2021/09/11 04:41:51;;;;;;;15.83;10.43;;;18.20;99.90;;;;;;5015772;28;20168;-71
2021/09/11 04:44:17;;;;;;;16.53;11.47;;;18.20;99.90;;;;;;5033757;28;20563;-71
2021/09/11 04:46:42;;;;;;;15.23;10.67;;;18.20;99.90;;;;;;5033338;28;20220;-71
2021/09/11 04:49:08;;;;;;;15.60;11.37;;;18.20;99.90;;;;;;5033307;28;20161;-71
2021/09/11 04:51:33;;;;;;;15.13;10.33;;;18.10;99.90;;;;;;5033200;28;20594;-71
2021/09/11 04:53:59;;;;;;;15.50;10.40;;;18.10;99.90;;;;;;5015311;28;20305;-71
2021/09/11 04:56:24;;;;;;;12.27;9.73;;;18.10;99.90;;;;;;5015455;28;20192;-71
2021/09/11 04:58:50;;;;;;;16.33;9.57;;;18.10;99.90;;;;;;5033450;28;20247;-71
2021/09/11 05:01:15;;;;;;;12.20;9.23;;;18.10;99.90;;;;;;5023221;28;20539;-71
2021/09/11 05:03:41;;;;;;;11.50;9.53;;;18.10;99.90;;;;;;5013596;28;20168;-71
2021/09/11 05:06:06;;;;;;;9.73;8.33;;;18.10;99.90;;;;;;5013380;28;20532;-71
2021/09/11 05:08:32;;;;;;;12.23;7.93;;;18.10;99.90;;;;;;5013692;28;20709;-71
2021/09/11 05:10:57;;;;;;;10.67;7.47;;;18.00;99.90;;;;;;5015069;28;20172;-71
2021/09/11 05:13:23;;;;;;;8.87;7.30;;;18.00;99.90;;;;;;5032421;28;20182;-71
2021/09/11 05:15:49;;;;;;;8.47;6.80;;;18.00;99.90;;;;;;5026669;28;20239;-71
2021/09/11 05:18:14;;;;;;;6.67;5.97;;;18.00;99.90;;;;;;5013081;28;20173;-71
2021/09/11 05:20:40;;;;;;;10.60;6.70;;;18.00;99.90;;;;;;5013355;28;20172;-71
2021/09/11 05:23:05;;;;;;;8.07;5.73;;;17.90;99.90;;;;;;5015170;28;20631;-71
2021/09/11 05:25:31;;;;;;;9.80;6.23;;;18.00;99.90;;;;;;5013697;28;20288;-71
2021/09/11 05:27:56;;;;;;;7.47;6.00;;;17.90;99.90;;;;;;5013748;28;20608;-71
2021/09/11 05:30:22;;;;;;;7.77;6.40;;;17.90;99.90;;;;;;5030995;28;20312;-71
2021/09/11 05:32:48;;;;;;;7.63;6.13;;;17.90;99.90;;;;;;5032871;28;20690;-71
2021/09/11 05:35:13;;;;;;;9.87;7.10;;;18.00;99.90;;;;;;5032965;28;20161;-71
2021/09/11 05:37:39;;;;;;;8.43;6.27;;;18.00;99.90;;;;;;5033593;28;20153;-71
2021/09/11 05:40:05;;;;;;;8.27;6.87;;;18.00;99.90;;;;;;5033278;28;20640;-71
2021/09/11 05:42:32;;;;;;;9.73;6.33;;;18.00;99.90;;;;;;5031967;28;20268;-71
2021/09/11 05:44:59;;;;;;;7.83;6.60;;;18.00;99.90;;;;;;5030465;28;20553;-71
2021/09/11 05:47:25;;;;;;;9.17;6.30;;;18.00;99.90;;;;;;5012925;28;20459;-71
2021/09/11 05:49:50;;;;;;;5.70;4.70;;;17.90;99.90;;;;;;5023172;28;20947;-71
2021/09/11 05:52:16;;;;;;;6.40;5.33;;;17.90;99.90;;;;;;5022301;28;20412;-71
2021/09/11 05:54:42;;;;;;;8.30;5.77;;;17.90;99.90;;;;;;5013732;28;20222;-71
2021/09/11 05:57:07;;;;;;;6.83;5.33;;;17.90;99.90;;;;;;5013011;28;20159;-71
2021/09/11 05:59:33;;;;;;;8.43;5.83;;;17.90;99.90;;;;;;5013170;28;20197;-71
2021/09/11 06:01:58;;;;;;;8.00;6.07;;;17.90;99.90;;;;;;5013265;28;20520;-71
2021/09/11 06:04:24;;;;;;;6.23;5.23;;;17.90;99.90;;;;;;5013656;28;20183;-71
2021/09/11 06:06:49;;;;;;;5.00;4.47;;;18.00;99.90;;;;;;5014803;28;20623;-72
2021/09/11 06:09:15;;;;;;;6.97;5.17;;;18.00;99.90;;;;;;5013146;28;20543;-71
2021/09/11 06:11:40;;;;;;;5.60;4.13;;;18.00;99.90;;;;;;5012618;28;20182;-71
2021/09/11 06:14:06;;;;;;;5.70;4.77;;;18.00;99.90;;;;;;5015672;28;20160;-71
2021/09/11 06:16:31;;;;;;;4.03;3.60;;;18.00;99.90;;;;;;5015714;28;20677;-71
2021/09/11 06:18:57;;;;;;;5.80;4.30;;;18.10;99.90;;;;;;5017561;28;20168;-71
2021/09/11 06:21:23;;;;;;;5.40;4.70;;;18.10;99.90;;;;;;5030725;28;20178;-71
2021/09/11 06:23:48;;;;;;;4.40;3.90;;;18.10;99.90;;;;;;5016923;28;20746;-71
2021/09/11 06:26:14;;;;;;;5.67;4.00;;;18.10;99.90;;;;;;5022242;28;20223;-71
2021/09/11 06:28:40;;;;;;;7.10;4.53;;;18.20;99.90;;;;;;5035708;28;20549;-71
2021/09/11 06:31:05;;;;;;;4.47;4.00;;;18.20;99.90;;;;;;5031201;28;20184;-71
2021/09/11 06:33:31;;;;;;;3.80;3.33;;;18.20;99.90;;;;;;5035841;28;20256;-71
2021/09/11 06:35:56;;;;;;;5.53;4.00;;;18.20;99.90;;;;;;5035341;28;20168;-71
2021/09/11 06:38:22;;;;;;;4.77;4.10;;;18.20;99.90;;;;;;5035190;28;20577;-71
2021/09/11 06:40:47;;;;;;;3.70;3.00;;;18.20;99.90;;;;;;5035765;28;20550;-71
2021/09/11 06:43:13;;;;;;;5.07;3.70;;;18.30;99.90;;;;;;5035284;28;20190;-71
2021/09/11 06:45:38;;;;;;;3.90;3.30;;;18.30;99.90;;;;;;5034505;28;20841;-71
2021/09/11 06:48:04;;;;;;;4.23;3.83;;;18.40;99.90;;;;;;5035789;28;20159;-71
2021/09/11 06:50:30;;;;;;;5.10;3.20;;;18.40;99.90;;;;;;5035764;28;20172;-71
2021/09/11 06:52:56;;;;;;;4.63;3.40;;;18.50;99.90;;;;;;5035080;28;20211;-71
2021/09/11 06:55:21;;;;;;;4.20;3.80;;;18.50;99.90;;;;;;5034425;28;20169;-71
2021/09/11 06:57:47;;;;;;;3.13;2.83;;;18.60;99.90;;;;;;5019187;28;20230;-71
2021/09/11 07:00:13;;;;;;;4.90;3.30;;;18.60;99.90;;;;;;5015590;28;20255;-71
2021/09/11 07:02:38;;;;;;;4.10;3.23;;;18.60;99.90;;;;;;5015700;28;20173;-71
2021/09/11 07:05:04;;;;;;;6.57;3.90;;;18.70;99.90;;;;;;5015598;28;20232;-71
2021/09/11 07:07:31;;;;;;;3.53;3.10;;;18.70;99.90;;;;;;5015834;28;20594;-72
2021/09/11 07:09:57;;;;;;;4.63;3.00;;;18.80;99.90;;;;;;5016443;28;20492;-71
2021/09/11 07:12:23;;;;;;;6.20;3.77;;;18.80;99.90;;;;;;5033691;28;20510;-71
2021/09/11 07:14:49;;;;;;;5.90;4.17;;;18.80;99.90;;;;;;5034826;28;20587;-71
2021/09/11 07:17:14;;;;;;;2.77;2.53;;;18.90;99.90;;;;;;5016586;28;20181;-71
2021/09/11 07:19:40;;;;;;;4.40;2.97;;;19.00;99.90;;;;;;5015383;28;20432;-71
2021/09/11 07:22:06;;;;;;;4.60;2.80;;;19.10;99.90;;;;;;5015698;28;20161;-71
2021/09/11 07:24:31;;;;;;;3.40;2.80;;;19.20;99.90;;;;;;5015099;28;20515;-71
2021/09/11 07:26:57;;;;;;;4.27;3.30;;;19.30;99.90;;;;;;5015544;28;20201;-71
2021/09/11 07:29:22;;;;;;;3.73;3.30;;;19.40;99.90;;;;;;5025413;28;20177;-71
2021/09/11 07:31:48;;;;;;;3.70;2.70;;;19.50;99.90;;;;;;5034949;28;20294;-71
2021/09/11 07:34:14;;;;;;;6.07;3.07;;;19.60;99.90;;;;;;5034943;28;20538;-71
2021/09/11 07:36:40;;;;;;;2.97;2.70;;;19.70;99.90;;;;;;5035197;28;20157;-71
2021/09/11 07:39:05;;;;;;;7.13;2.73;;;19.70;99.90;;;;;;5034717;28;20267;-71
2021/09/11 07:41:33;;;;;;;4.17;2.40;;;19.70;99.90;;;;;;5025353;28;20260;-71
2021/09/11 07:43:58;;;;;;;3.93;2.97;;;19.70;99.90;;;;;;5015593;28;20559;-71
2021/09/11 07:46:24;;;;;;;3.47;2.80;;;19.70;99.90;;;;;;5016642;28;20554;-71
2021/09/11 07:48:50;;;;;;;3.53;2.20;;;19.70;99.90;;;;;;5014657;28;20154;-71
2021/09/11 07:51:15;;;;;;;2.23;2.03;;;19.70;99.90;;;;;;5015144;28;20229;-71
2021/09/11 07:53:41;;;;;;;3.20;2.80;;;19.80;99.90;;;;;;5015847;28;20181;-71
2021/09/11 07:56:07;;;;;;;5.00;2.10;;;19.90;99.90;;;;;;5014683;28;20205;-71
2021/09/11 07:58:33;;;;;;;1.50;1.40;;;20.00;99.90;;;;;;5014437;28;20189;-71
2021/09/11 08:01:00;;;;;;;2.27;2.00;;;19.90;99.90;;;;;;5014937;28;20398;-71
2021/09/11 08:03:26;;;;;;;1.87;1.50;;;19.90;99.90;;;;;;5014972;28;20706;-71
2021/09/11 08:05:52;;;;;;;3.00;2.30;;;19.80;99.90;;;;;;5014918;28;20448;-71
2021/09/11 08:08:17;;;;;;;2.63;1.90;;;19.80;99.90;;;;;;5014469;28;20396;-71
2021/09/11 08:10:43;;;;;;;3.10;2.00;;;19.80;99.90;;;;;;5014044;28;20185;-71
2021/09/11 08:13:08;;;;;;;2.33;2.13;;;19.90;99.90;;;;;;5013323;28;20177;-71
2021/09/11 08:15:34;;;;;;;1.80;1.70;;;19.90;99.90;;;;;;5014188;28;20177;-71
2021/09/11 08:18:01;;;;;;;1.77;1.50;;;20.00;99.90;;;;;;5014648;28;20211;-71
2021/09/11 08:20:32;;;;;;;3.50;2.23;;;20.10;99.90;;;;;;5015140;28;20178;-71
2021/09/11 08:23:00;;;;;;;2.20;1.67;;;20.30;99.90;;;;;;5014147;28;20427;-72
2021/09/11 08:25:26;;;;;;;2.10;1.63;;;20.40;99.90;;;;;;5013866;28;20444;-72
2021/09/11 08:27:51;;;;;;;1.40;1.30;;;20.50;99.90;;;;;;5014368;28;20438;-72
2021/09/11 08:30:17;;;;;;;3.33;1.00;;;20.70;99.90;;;;;;5030717;28;20331;-72
2021/09/11 08:32:42;;;;;;;1.47;1.37;;;20.90;99.90;;;;;;5020248;28;20196;-72
2021/09/11 08:35:08;;;;;;;1.80;1.30;;;21.00;99.90;;;;;;5030743;28;20690;-72
2021/09/11 08:37:34;;;;;;;1.10;1.00;;;21.10;99.90;;;;;;5014436;28;20186;-72
2021/09/11 08:40:00;;;;;;;1.97;1.10;;;21.20;99.90;;;;;;5014030;28;20407;-72
2021/09/11 08:42:25;;;;;;;1.63;1.23;;;21.30;99.90;;;;;;5012611;28;20165;-72
2021/09/11 08:44:51;;;;;;;1.23;1.13;;;21.40;99.90;;;;;;5013797;28;20170;-72
2021/09/11 08:47:17;;;;;;;2.30;1.40;;;21.50;99.90;;;;;;5013555;28;20201;-72
2021/09/11 08:49:43;;;;;;;1.27;1.10;;;21.60;99.90;;;;;;5013976;28;20161;-72
2021/09/11 08:52:08;;;;;;;1.97;1.03;;;21.60;99.90;;;;;;5014120;28;20837;-72
2021/09/11 08:54:35;;;;;;;6.03;1.53;;;21.60;99.90;;;;;;5014252;28;20183;-72
2021/09/11 08:59:54;;;;;;;2.40;1.40;;;21.50;99.90;;;;;;5052481;28;20564;-71
2021/09/11 09:02:23;;;;;;;2.50;1.07;;;21.40;99.90;;;;;;5049349;28;20434;-71
2021/09/11 09:12:47;;;;;;;3.80;1.30;;;21.40;99.90;;;;;;5055447;28;21046;-71
2021/09/11 09:15:15;;;;;;;2.17;1.37;;;21.30;99.90;;;;;;5049259;28;20461;-71
2021/09/11 09:20:27;;;;;;;4.33;1.70;;;21.20;99.90;;;;;;5090726;27;20514;-71
2021/09/11 09:25:37;;;;;;;2.67;1.50;;;21.00;99.90;;;;;;5068479;28;20528;-72
2021/09/11 09:28:07;;;;;;;1.70;1.40;;;21.10;99.90;;;;;;5051033;28;20413;-72
2021/09/11 09:33:25;;;;;;;1.50;1.40;;;21.40;99.90;;;;;;5060227;28;20662;-71
2021/09/11 09:35:51;;;;;;;4.40;1.30;;;21.90;99.90;;;;;;5049482;28;20433;-71
2021/09/11 09:38:18;;;;;;;1.83;1.73;;;22.60;99.90;;;;;;5050239;28;20480;-72
2021/09/11 09:43:42;;;;;;;1.10;1.00;;;23.10;99.90;;;;;;5066054;28;20663;-71
2021/09/11 09:46:13;;;;;;;4.00;1.43;;;23.50;99.90;;;;;;5049278;28;20534;-71
2021/09/11 09:48:41;;;;;;;1.30;1.20;;;23.50;99.90;;;;;;5048149;28;20932;-71
2021/09/11 09:51:10;;;;;;;1.73;1.40;;;23.50;99.90;;;;;;5049789;28;20448;-71
2021/09/11 09:53:38;;;;;;;1.40;1.10;;;23.40;99.90;;;;;;5050118;28;20483;-71
2021/09/11 09:56:04;;;;;;;1.47;1.37;;;23.40;99.90;;;;;;5050061;28;20900;-71
2021/09/11 09:58:31;;;;;;;1.30;1.20;;;23.30;99.90;;;;;;5050041;28;20480;-71
2021/09/11 10:00:57;;;;;;;2.33;1.10;;;23.20;99.90;;;;;;5041534;28;20416;-71
2021/09/11 10:03:22;;;;;;;1.90;1.70;;;23.10;99.90;;;;;;5041183;28;20518;-71
2021/09/11 10:05:52;;;;;;;2.57;1.67;;;23.00;99.90;;;;;;5048616;28;20256;-71
2021/09/11 10:08:19;;;;;;;1.57;1.40;;;22.80;99.90;;;;;;5049854;28;20176;-71
2021/09/11 10:10:47;;;;;;;1.30;1.20;;;22.70;99.90;;;;;;5049783;28;20407;-71
2021/09/11 10:13:15;;;;;;;1.60;1.50;;;22.70;99.90;;;;;;5050168;28;20398;-71
2021/09/11 10:26:47;;;;;;;1.43;1.33;;;22.70;99.90;;;;;;5066706;28;20523;-71
2021/09/11 10:40:36;;;;;;;2.30;1.53;;;22.50;99.90;;;;;;5070324;28;20520;-72
2021/09/11 10:51:33;;;;;;;1.33;1.23;;;22.90;99.90;;;;;;5023488;27;20525;-72
2021/09/11 11:04:54;;;;;;;1.63;1.50;;;22.90;99.90;;;;;;5070307;28;20519;-72
2021/09/11 11:10:05;;;;;;;2.93;2.20;;;22.80;99.90;;;;;;5052249;28;20639;-72
2021/09/11 11:15:14;;;;;;;2.47;2.13;;;22.90;99.90;;;;;;5070190;28;20535;-72
2021/09/11 11:17:51;;;;;;;1.87;1.70;;;22.80;99.90;;;;;;5050176;28;20425;-72
2021/09/11 11:20:23;;;;;;;1.87;1.77;;;22.90;99.90;;;;;;5050183;28;20407;-72
2021/09/11 11:22:49;;;;;;;1.73;1.63;;;22.90;99.90;;;;;;5050227;28;20383;-72
2021/09/11 11:25:27;;;;;;;1.90;1.70;;;23.00;99.90;;;;;;5054779;28;20409;-72
2021/09/11 11:27:55;;;;;;;2.03;1.87;;;23.10;99.90;;;;;;5051233;28;20183;-72
2021/09/11 11:30:21;;;;;;;2.37;2.17;;;23.10;99.90;;;;;;5067629;28;20417;-72
2021/09/11 11:32:47;;;;;;;3.00;1.73;;;23.00;99.90;;;;;;5069885;28;20792;-72
2021/09/11 11:35:15;;;;;;;3.37;1.90;;;23.00;99.90;;;;;;5070199;28;20213;-72
2021/09/11 11:37:42;;;;;;;2.97;2.20;;;22.90;99.90;;;;;;5070133;28;20167;-72
2021/09/11 11:40:11;;;;;;;4.60;1.87;;;23.00;99.90;;;;;;5072447;28;20785;-72
2021/09/11 11:42:38;;;;;;;6.00;2.07;;;23.00;99.90;;;;;;5063467;28;20411;-72
2021/09/11 11:45:07;;;;;;;2.97;2.27;;;23.00;99.90;;;;;;5050250;28;21037;-72
2021/09/11 11:50:36;;;;;;;2.93;2.13;;;23.10;99.90;;;;;;5068724;28;20622;-72
2021/09/11 11:53:06;;;;;;;2.93;2.60;;;23.20;99.90;;;;;;5053120;28;20454;-72
2021/09/11 11:55:33;;;;;;;1.90;1.73;;;23.20;99.90;;;;;;5050044;28;20480;-72
2021/09/11 11:58:20;;;;;;;3.43;2.23;;;23.20;99.90;;;;;;5050409;28;20397;-72
2021/09/11 12:03:41;;;;;;;3.80;2.53;;;23.10;99.90;;;;;;5051804;28;20521;-71
2021/09/11 12:06:25;;;;;;;4.30;2.40;;;23.00;99.90;;;;;;5050079;28;20414;-71
2021/09/11 12:08:52;;;;;;;2.57;2.20;;;23.00;99.90;;;;;;5050828;28;20395;-71
2021/09/11 12:13:59;;;;;;;2.73;2.00;;;23.00;99.90;;;;;;5070328;28;20634;-72
2021/09/11 12:16:26;;;;;;;2.87;2.17;;;23.00;99.90;;;;;;5059624;28;20414;-72
2021/09/11 12:18:52;;;;;;;3.33;1.90;;;22.90;99.90;;;;;;5055802;28;20413;-72
2021/09/11 12:21:18;;;;;;;3.47;3.07;;;22.90;99.90;;;;;;5070290;28;20884;-72
2021/09/11 12:23:49;;;;;;;3.00;2.40;;;22.90;99.90;;;;;;5054188;28;20641;-72
2021/09/11 12:26:15;;;;;;;2.80;2.23;;;22.90;99.90;;;;;;5061659;28;20423;-72
2021/09/11 12:31:27;;;;;;;2.30;2.10;;;22.80;99.90;;;;;;5069244;28;20559;-70
2021/09/11 12:36:42;;;;;;;4.60;3.10;;;22.80;99.90;;;;;;5058672;28;20539;-71
2021/09/11 12:41:53;;;;;;;4.43;1.90;;;22.50;99.90;;;;;;5070212;28;20542;-71
2021/09/11 12:44:20;;;;;;;3.87;2.90;;;22.30;99.90;;;;;;5070134;28;20394;-71
2021/09/11 12:46:51;;;;;;;1.97;1.77;;;22.20;99.90;;;;;;5069637;28;20801;-72
2021/09/11 12:49:18;;;;;;;3.00;2.30;;;22.20;99.90;;;;;;5050077;28;20831;-72
2021/09/11 12:51:46;;;;;;;2.93;2.60;;;22.20;99.90;;;;;;5049026;28;20461;-72
2021/09/11 12:54:13;;;;;;;4.53;2.20;;;22.30;99.90;;;;;;5049867;28;20418;-72
2021/09/11 12:56:39;;;;;;;2.83;2.53;;;22.40;99.90;;;;;;5050170;28;20387;-72
2021/09/11 12:59:06;;;;;;;5.20;2.77;;;22.40;99.90;;;;;;5049957;28;20446;-72
2021/09/11 13:01:39;;;;;;;2.93;2.60;;;22.40;99.90;;;;;;5048372;28;20203;-72
2021/09/11 13:04:06;;;;;;;2.97;2.60;;;22.40;99.90;;;;;;5050023;28;20402;-72
2021/09/11 13:06:33;;;;;;;2.73;2.50;;;22.40;99.90;;;;;;5049894;28;20767;-72
2021/09/11 13:09:00;;;;;;;2.93;2.53;;;22.30;99.90;;;;;;5049473;28;20514;-72
2021/09/11 13:11:25;;;;;;;3.77;2.37;;;22.30;99.90;;;;;;5048500;28;20529;-72
2021/09/11 13:13:52;;;;;;;3.13;2.20;;;22.20;99.90;;;;;;5049887;28;20881;-72
2021/09/11 13:16:18;;;;;;;2.27;2.07;;;22.10;99.90;;;;;;5049527;28;20200;-72
2021/09/11 13:18:45;;;;;;;4.03;2.13;;;22.10;99.90;;;;;;5049798;28;20395;-72
2021/09/11 13:21:12;;;;;;;2.53;2.10;;;22.00;99.90;;;;;;5049266;28;20462;-72
2021/09/11 13:23:41;;;;;;;2.03;1.83;;;22.00;99.90;;;;;;5049286;28;20529;-72
2021/09/11 13:26:08;;;;;;;2.80;2.07;;;22.10;99.90;;;;;;5031250;28;20420;-72
2021/09/11 13:28:34;;;;;;;3.33;2.40;;;22.10;99.90;;;;;;5049134;28;20411;-72
2021/09/11 13:31:00;;;;;;;4.43;2.17;;;22.20;99.90;;;;;;5047507;28;20422;-72
2021/09/11 13:33:26;;;;;;;2.57;2.37;;;22.30;99.90;;;;;;5049481;28;20888;-72
2021/09/11 13:35:51;;;;;;;2.97;2.60;;;22.40;99.90;;;;;;5049362;28;20268;-72
2021/09/11 13:38:17;;;;;;;3.00;2.30;;;22.50;99.90;;;;;;5049201;28;20191;-72
2021/09/11 13:40:43;;;;;;;2.77;2.53;;;22.50;99.90;;;;;;5048936;28;20210;-72
2021/09/11 13:43:08;;;;;;;1.87;1.77;;;22.50;99.90;;;;;;5045975;28;20265;-72
2021/09/11 13:45:35;;;;;;;2.17;1.97;;;22.50;99.90;;;;;;5048815;28;20176;-72
2021/09/11 13:48:00;;;;;;;2.20;2.10;;;22.50;99.90;;;;;;5048887;28;20255;-72
2021/09/11 13:50:26;;;;;;;2.10;1.90;;;22.40;99.90;;;;;;5049304;28;20446;-72
2021/09/11 13:52:52;;;;;;;2.43;2.23;;;22.30;99.90;;;;;;5037255;28;20204;-72
2021/09/11 13:55:17;;;;;;;2.63;2.43;;;22.30;99.90;;;;;;5035746;28;20176;-72
2021/09/11 13:57:43;;;;;;;3.30;2.60;;;22.30;99.90;;;;;;5035926;28;20322;-72
2021/09/11 14:00:09;;;;;;;3.07;2.77;;;22.30;99.90;;;;;;5028434;28;20197;-72
2021/09/11 14:02:35;;;;;;;3.20;2.23;;;22.30;99.90;;;;;;5034644;28;20242;-72
2021/09/11 14:05:00;;;;;;;2.53;2.33;;;22.30;99.90;;;;;;5035562;28;20745;-72
2021/09/11 14:07:26;;;;;;;2.30;1.83;;;22.20;99.90;;;;;;5035500;28;20199;-72